sensor_id;sensor_type;location;lat;lon;timestamp;pressure;altitude;pressure_sealevel;temperature;humidity
60375;BME280;70244;48.792;9.172;2023-08-12T04:16:32;97749.70;;;27.04;58.81
60375;BME280;70244;48.792;9.172;2023-08-12T04:19:02;97755.67;;;27.13;58.60
60375;BME280;70244;48.792;9.172;2023-08-12T04:21:15;97763.55;;;27.22;58.11
60375;BME280;70244;48.792;9.172;2023-08-12T04:23:45;97763.35;;;27.09;58.77
60375;BME280;70244;48.792;9.172;2023-08-12T04:26:15;97763.51;;;27.22;58.32
60375;BME280;70244;48.792;9.172;2023-08-12T04:28:46;97769.66;;;27.41;57.84
60375;BME280;70244;48.792;9.172;2023-08-12T04:31:16;97772.48;;;27.59;57.29
60375;BME280;70244;48.792;9.172;2023-08-12T04:33:47;97775.37;;;27.66;57.11
60375;BME280;70244;48.792;9.172;2023-08-12T04:36:17;97773.75;;;27.69;57.00
60375;BME280;70244;48.792;9.172;2023-08-12T04:38:48;97774.08;;;27.73;56.94
60375;BME280;70244;48.792;9.172;2023-08-12T04:41:18;97769.50;;;27.70;56.98
60375;BME280;70244;48.792;9.172;2023-08-12T04:43:49;97762.67;;;27.62;57.30
60375;BME280;70244;48.792;9.172;2023-08-12T04:46:19;97762.14;;;27.58;57.42
60375;BME280;70244;48.792;9.172;2023-08-12T04:48:50;97764.80;;;27.61;57.37
60375;BME280;70244;48.792;9.172;2023-08-12T04:51:21;97767.93;;;27.83;56.95
60375;BME280;70244;48.792;9.172;2023-08-12T04:53:51;97771.14;;;27.53;57.58
60375;BME280;70244;48.792;9.172;2023-08-12T04:56:22;97766.36;;;27.43;57.81
60375;BME280;70244;48.792;9.172;2023-08-12T04:58:52;97770.23;;;27.59;57.42
60375;BME280;70244;48.792;9.172;2023-08-12T05:01:22;97769.84;;;27.60;57.57
60375;BME280;70244;48.792;9.172;2023-08-12T05:03:53;97765.73;;;27.71;57.27
60375;BME280;70244;48.792;9.172;2023-08-12T05:06:24;97764.64;;;27.68;57.33
60375;BME280;70244;48.792;9.172;2023-08-12T05:08:55;97764.38;;;27.71;57.28
60375;BME280;70244;48.792;9.172;2023-08-12T05:11:25;97763.56;;;27.79;57.06
60375;BME280;70244;48.792;9.172;2023-08-12T05:13:55;97764.43;;;27.84;56.95
60375;BME280;70244;48.792;9.172;2023-08-12T05:16:26;97765.98;;;28.12;56.55
60375;BME280;70244;48.792;9.172;2023-08-12T05:18:56;97754.66;;;28.03;56.70
60375;BME280;70244;48.792;9.172;2023-08-12T05:21:27;97760.84;;;27.98;56.79
60375;BME280;70244;48.792;9.172;2023-08-12T05:23:57;97766.31;;;27.80;57.45
60375;BME280;70244;48.792;9.172;2023-08-12T05:26:28;97771.02;;;27.69;58.01
60375;BME280;70244;48.792;9.172;2023-08-12T05:28:59;97769.70;;;27.79;57.57
60375;BME280;70244;48.792;9.172;2023-08-12T05:31:29;97775.49;;;27.56;58.50
60375;BME280;70244;48.792;9.172;2023-08-12T05:34:00;97778.53;;;27.34;59.11
60375;BME280;70244;48.792;9.172;2023-08-12T05:36:31;97772.75;;;27.60;58.47
60375;BME280;70244;48.792;9.172;2023-08-12T05:39:01;97764.55;;;27.60;58.61
60375;BME280;70244;48.792;9.172;2023-08-12T05:41:32;97764.50;;;26.79;61.56
60375;BME280;70244;48.792;9.172;2023-08-12T05:44:03;97761.97;;;27.26;59.59
60375;BME280;70244;48.792;9.172;2023-08-12T05:46:33;97760.13;;;27.39;59.72
60375;BME280;70244;48.792;9.172;2023-08-12T05:49:04;97755.52;;;27.38;59.33
60375;BME280;70244;48.792;9.172;2023-08-12T05:51:34;97756.64;;;27.67;58.69
60375;BME280;70244;48.792;9.172;2023-08-12T05:54:05;97771.06;;;27.73;59.76
60375;BME280;70244;48.792;9.172;2023-08-12T05:56:35;97765.41;;;27.64;60.42
60375;BME280;70244;48.792;9.172;2023-08-12T05:59:06;97762.89;;;27.64;60.48
60375;BME280;70244;48.792;9.172;2023-08-12T06:01:36;97771.59;;;27.94;60.19
60375;BME280;70244;48.792;9.172;2023-08-12T06:04:12;97767.40;;;27.70;60.91
60375;BME280;70244;48.792;9.172;2023-08-12T06:06:38;97764.67;;;26.65;64.34
60375;BME280;70244;48.792;9.172;2023-08-12T06:09:08;97768.97;;;27.23;62.38
60375;BME280;70244;48.792;9.172;2023-08-12T06:11:38;97776.30;;;27.50;61.91
60375;BME280;70244;48.792;9.172;2023-08-12T06:14:09;97778.45;;;27.46;61.82
60375;BME280;70244;48.792;9.172;2023-08-12T06:16:39;97769.71;;;27.63;61.20
60375;BME280;70244;48.792;9.172;2023-08-12T06:19:10;97759.03;;;27.60;61.09
60375;BME280;70244;48.792;9.172;2023-08-12T06:21:40;97754.89;;;27.82;60.54
60375;BME280;70244;48.792;9.172;2023-08-12T06:24:16;97753.83;;;28.04;59.72
60375;BME280;70244;48.792;9.172;2023-08-12T06:26:41;97750.40;;;28.22;58.92
60375;BME280;70244;48.792;9.172;2023-08-12T06:29:11;97746.13;;;28.31;59.04
60375;BME280;70244;48.792;9.172;2023-08-12T06:31:42;97744.10;;;28.37;58.71
60375;BME280;70244;48.792;9.172;2023-08-12T06:34:12;97746.51;;;28.43;58.26
60375;BME280;70244;48.792;9.172;2023-08-12T06:36:43;97749.69;;;28.48;58.02
60375;BME280;70244;48.792;9.172;2023-08-12T06:39:13;97750.38;;;28.37;58.13
60375;BME280;70244;48.792;9.172;2023-08-12T06:41:44;97752.20;;;28.45;57.81
60375;BME280;70244;48.792;9.172;2023-08-12T06:44:14;97756.66;;;28.51;57.81
60375;BME280;70244;48.792;9.172;2023-08-12T06:46:45;97757.23;;;28.59;57.29
60375;BME280;70244;48.792;9.172;2023-08-12T06:49:16;97757.74;;;28.66;56.99
60375;BME280;70244;48.792;9.172;2023-08-12T06:51:46;97757.39;;;28.64;57.44
60375;BME280;70244;48.792;9.172;2023-08-12T06:54:16;97759.56;;;28.60;57.64
60375;BME280;70244;48.792;9.172;2023-08-12T06:56:47;97760.13;;;28.67;57.47
60375;BME280;70244;48.792;9.172;2023-08-12T06:59:18;97756.63;;;28.73;57.07
60375;BME280;70244;48.792;9.172;2023-08-12T07:01:48;97757.38;;;28.73;57.38
60375;BME280;70244;48.792;9.172;2023-08-12T07:04:18;97756.88;;;28.79;57.20
60375;BME280;70244;48.792;9.172;2023-08-12T07:06:49;97758.48;;;28.78;57.08
60375;BME280;70244;48.792;9.172;2023-08-12T07:09:19;97757.17;;;28.82;56.88
60375;BME280;70244;48.792;9.172;2023-08-12T07:11:50;97755.53;;;28.90;56.53
60375;BME280;70244;48.792;9.172;2023-08-12T07:14:21;97753.21;;;28.88;56.58
60375;BME280;70244;48.792;9.172;2023-08-12T07:16:51;97753.89;;;28.94;56.45
60375;BME280;70244;48.792;9.172;2023-08-12T07:19:22;97757.43;;;28.91;56.47
60375;BME280;70244;48.792;9.172;2023-08-12T07:21:52;97758.59;;;28.92;56.61
60375;BME280;70244;48.792;9.172;2023-08-12T07:24:23;97758.16;;;28.81;57.37
60375;BME280;70244;48.792;9.172;2023-08-12T07:26:53;97757.37;;;28.81;57.03
60375;BME280;70244;48.792;9.172;2023-08-12T07:29:24;97759.12;;;28.90;56.96
60375;BME280;70244;48.792;9.172;2023-08-12T07:31:54;97759.02;;;28.92;56.76
60375;BME280;70244;48.792;9.172;2023-08-12T07:34:25;97761.80;;;28.90;56.84
60375;BME280;70244;48.792;9.172;2023-08-12T07:36:56;97761.64;;;28.97;56.61
60375;BME280;70244;48.792;9.172;2023-08-12T07:39:26;97757.99;;;28.99;56.53
60375;BME280;70244;48.792;9.172;2023-08-12T07:41:57;97758.53;;;28.93;56.93
60375;BME280;70244;48.792;9.172;2023-08-12T07:44:27;97758.90;;;28.95;56.60
60375;BME280;70244;48.792;9.172;2023-08-12T07:46:58;97757.26;;;28.94;56.58
60375;BME280;70244;48.792;9.172;2023-08-12T07:49:28;97756.66;;;28.99;56.61
60375;BME280;70244;48.792;9.172;2023-08-12T07:51:59;97753.20;;;28.97;56.51
60375;BME280;70244;48.792;9.172;2023-08-12T07:54:29;97756.83;;;29.07;56.39
60375;BME280;70244;48.792;9.172;2023-08-12T07:56:59;97758.18;;;29.03;56.53
60375;BME280;70244;48.792;9.172;2023-08-12T07:59:30;97756.71;;;29.11;56.51
60375;BME280;70244;48.792;9.172;2023-08-12T08:02:00;97755.64;;;29.03;56.97
60375;BME280;70244;48.792;9.172;2023-08-12T08:04:31;97756.43;;;28.98;57.08
60375;BME280;70244;48.792;9.172;2023-08-12T08:07:02;97755.68;;;29.05;56.62
60375;BME280;70244;48.792;9.172;2023-08-12T08:09:33;97750.89;;;29.03;56.54
60375;BME280;70244;48.792;9.172;2023-08-12T08:12:03;97750.75;;;29.18;57.11
60375;BME280;70244;48.792;9.172;2023-08-12T08:14:33;97751.14;;;28.96;57.33
60375;BME280;70244;48.792;9.172;2023-08-12T08:17:03;97749.55;;;29.01;57.32
60375;BME280;70244;48.792;9.172;2023-08-12T08:19:34;97748.54;;;28.84;57.56
60375;BME280;70244;48.792;9.172;2023-08-12T08:22:04;97744.88;;;28.73;58.00
60375;BME280;70244;48.792;9.172;2023-08-12T08:24:35;97741.26;;;28.81;57.72
60375;BME280;70244;48.792;9.172;2023-08-12T08:27:05;97741.19;;;29.01;57.48
60375;BME280;70244;48.792;9.172;2023-08-12T08:29:36;97742.58;;;29.07;57.10
60375;BME280;70244;48.792;9.172;2023-08-12T08:32:06;97740.95;;;29.09;57.26
60375;BME280;70244;48.792;9.172;2023-08-12T08:34:36;97740.30;;;29.05;57.56
60375;BME280;70244;48.792;9.172;2023-08-12T08:37:07;97740.63;;;28.80;57.90
60375;BME280;70244;48.792;9.172;2023-08-12T08:39:38;97745.96;;;29.15;57.55
60375;BME280;70244;48.792;9.172;2023-08-12T08:42:10;97746.42;;;28.88;57.80
60375;BME280;70244;48.792;9.172;2023-08-12T08:44:40;97749.12;;;28.64;58.44
60375;BME280;70244;48.792;9.172;2023-08-12T08:47:10;97748.48;;;28.90;57.81
60375;BME280;70244;48.792;9.172;2023-08-12T08:49:40;97750.74;;;28.94;57.91
60375;BME280;70244;48.792;9.172;2023-08-12T08:52:11;97754.87;;;28.69;58.49
60375;BME280;70244;48.792;9.172;2023-08-12T08:54:41;97751.93;;;28.88;58.05
60375;BME280;70244;48.792;9.172;2023-08-12T08:57:11;97750.19;;;28.72;58.53
60375;BME280;70244;48.792;9.172;2023-08-12T08:59:42;97746.53;;;28.72;58.55
60375;BME280;70244;48.792;9.172;2023-08-12T09:02:20;97747.70;;;28.88;58.06
60375;BME280;70244;48.792;9.172;2023-08-12T09:04:44;97746.74;;;29.02;57.64
60375;BME280;70244;48.792;9.172;2023-08-12T09:07:14;97743.38;;;29.12;57.42
60375;BME280;70244;48.792;9.172;2023-08-12T09:09:45;97741.81;;;29.14;57.39
60375;BME280;70244;48.792;9.172;2023-08-12T09:12:16;97741.14;;;29.23;57.04
60375;BME280;70244;48.792;9.172;2023-08-12T09:14:45;97745.20;;;29.24;57.05
60375;BME280;70244;48.792;9.172;2023-08-12T09:17:15;97742.54;;;29.21;57.24
60375;BME280;70244;48.792;9.172;2023-08-12T09:19:46;97742.46;;;29.12;57.16
60375;BME280;70244;48.792;9.172;2023-08-12T09:22:17;97745.72;;;29.19;57.29
60375;BME280;70244;48.792;9.172;2023-08-12T09:24:50;97744.90;;;29.19;57.12
60375;BME280;70244;48.792;9.172;2023-08-12T09:27:18;97743.59;;;29.22;56.93
60375;BME280;70244;48.792;9.172;2023-08-12T09:29:48;97744.22;;;29.24;56.95
60375;BME280;70244;48.792;9.172;2023-08-12T09:32:19;97744.04;;;29.22;57.02
60375;BME280;70244;48.792;9.172;2023-08-12T09:34:50;97738.41;;;29.20;57.20
60375;BME280;70244;48.792;9.172;2023-08-12T09:37:21;97735.91;;;29.22;57.22
60375;BME280;70244;48.792;9.172;2023-08-12T09:39:51;97735.90;;;29.23;57.30
60375;BME280;70244;48.792;9.172;2023-08-12T09:42:21;97735.91;;;29.22;57.33
60375;BME280;70244;48.792;9.172;2023-08-12T09:44:51;97730.74;;;29.24;57.06
60375;BME280;70244;48.792;9.172;2023-08-12T09:47:25;97725.02;;;29.24;57.32
60375;BME280;70244;48.792;9.172;2023-08-12T09:49:53;97719.14;;;29.23;57.25
60375;BME280;70244;48.792;9.172;2023-08-12T09:52:23;97711.15;;;29.28;57.01
60375;BME280;70244;48.792;9.172;2023-08-12T09:54:56;97706.14;;;29.31;56.86
60375;BME280;70244;48.792;9.172;2023-08-12T09:57:25;97697.93;;;29.34;57.06
60375;BME280;70244;48.792;9.172;2023-08-12T09:59:57;97697.96;;;29.35;57.07
60375;BME280;70244;48.792;9.172;2023-08-12T10:02:26;97704.78;;;29.35;57.12
60375;BME280;70244;48.792;9.172;2023-08-12T10:04:57;97694.31;;;29.26;56.87
60375;BME280;70244;48.792;9.172;2023-08-12T10:07:27;97681.84;;;29.27;56.90
60375;BME280;70244;48.792;9.172;2023-08-12T10:12:31;97696.38;;;29.28;57.16
60375;BME280;70244;48.792;9.172;2023-08-12T10:14:58;97694.25;;;29.30;57.01
60375;BME280;70244;48.792;9.172;2023-08-12T10:17:29;97690.20;;;29.31;56.85
60375;BME280;70244;48.792;9.172;2023-08-12T10:20:01;97691.88;;;29.31;56.87
60375;BME280;70244;48.792;9.172;2023-08-12T10:22:30;97691.07;;;29.33;56.97
60375;BME280;70244;48.792;9.172;2023-08-12T10:25:02;97691.66;;;29.34;56.94
60375;BME280;70244;48.792;9.172;2023-08-12T10:27:31;97694.21;;;29.05;57.12
60375;BME280;70244;48.792;9.172;2023-08-12T10:30:03;97693.93;;;29.18;57.00
60375;BME280;70244;48.792;9.172;2023-08-12T10:32:32;97691.09;;;29.33;56.68
60375;BME280;70244;48.792;9.172;2023-08-12T10:35:02;97693.45;;;29.39;56.46
60375;BME280;70244;48.792;9.172;2023-08-12T10:37:33;97693.22;;;29.42;56.41
60375;BME280;70244;48.792;9.172;2023-08-12T10:40:04;97695.78;;;29.46;56.30
60375;BME280;70244;48.792;9.172;2023-08-12T10:42:41;97695.72;;;29.45;56.66
60375;BME280;70244;48.792;9.172;2023-08-12T10:45:04;97697.35;;;29.46;56.60
60375;BME280;70244;48.792;9.172;2023-08-12T10:47:38;97697.41;;;29.48;56.55
60375;BME280;70244;48.792;9.172;2023-08-12T10:50:10;97698.20;;;29.10;57.23
60375;BME280;70244;48.792;9.172;2023-08-12T10:52:35;97695.84;;;28.88;57.63
60375;BME280;70244;48.792;9.172;2023-08-12T10:55:15;97693.27;;;29.33;56.98
60375;BME280;70244;48.792;9.172;2023-08-12T10:57:37;97690.14;;;29.43;56.64
60375;BME280;70244;48.792;9.172;2023-08-12T11:00:10;97686.92;;;29.33;56.46
60375;BME280;70244;48.792;9.172;2023-08-12T11:02:37;97681.71;;;29.63;56.01
60375;BME280;70244;48.792;9.172;2023-08-12T11:05:09;97680.62;;;29.74;56.35
60375;BME280;70244;48.792;9.172;2023-08-12T11:07:40;97685.72;;;29.71;56.17
60375;BME280;70244;48.792;9.172;2023-08-12T11:10:12;97681.56;;;29.70;56.39
60375;BME280;70244;48.792;9.172;2023-08-12T11:12:41;97676.94;;;29.76;55.87
60375;BME280;70244;48.792;9.172;2023-08-12T11:15:10;97679.75;;;29.61;56.75
60375;BME280;70244;48.792;9.172;2023-08-12T11:17:41;97675.84;;;29.56;56.85
60375;BME280;70244;48.792;9.172;2023-08-12T11:20:12;97669.76;;;29.84;55.80
60375;BME280;70244;48.792;9.172;2023-08-12T11:22:44;97664.79;;;29.92;55.53
60375;BME280;70244;48.792;9.172;2023-08-12T11:25:13;97656.14;;;29.78;55.81
60375;BME280;70244;48.792;9.172;2023-08-12T11:27:44;97656.90;;;29.76;55.94
60375;BME280;70244;48.792;9.172;2023-08-12T11:30:15;97647.00;;;29.42;57.13
60375;BME280;70244;48.792;9.172;2023-08-12T11:32:44;97640.75;;;29.38;57.43
60375;BME280;70244;48.792;9.172;2023-08-12T11:35:15;97635.62;;;29.45;57.36
60375;BME280;70244;48.792;9.172;2023-08-12T11:37:46;97629.60;;;29.56;57.01
60375;BME280;70244;48.792;9.172;2023-08-12T11:42:51;97619.83;;;29.61;56.69
60375;BME280;70244;48.792;9.172;2023-08-12T11:45:18;97615.70;;;29.63;56.72
60375;BME280;70244;48.792;9.172;2023-08-12T11:47:47;97607.37;;;29.67;56.49
60375;BME280;70244;48.792;9.172;2023-08-12T11:50:17;97618.01;;;29.70;56.71
60375;BME280;70244;48.792;9.172;2023-08-12T11:52:48;97620.63;;;29.71;56.80
60375;BME280;70244;48.792;9.172;2023-08-12T11:55:19;97640.76;;;29.59;56.87
60375;BME280;70244;48.792;9.172;2023-08-12T11:57:50;97658.41;;;29.51;57.16
60375;BME280;70244;48.792;9.172;2023-08-12T12:00:20;97674.51;;;29.48;57.18
60375;BME280;70244;48.792;9.172;2023-08-12T12:02:51;97707.63;;;29.42;57.59
60375;BME280;70244;48.792;9.172;2023-08-12T12:05:22;97707.96;;;29.36;57.45
60375;BME280;70244;48.792;9.172;2023-08-12T12:07:51;97715.38;;;29.38;57.18
60375;BME280;70244;48.792;9.172;2023-08-12T12:10:26;97723.43;;;29.41;57.74
60375;BME280;70244;48.792;9.172;2023-08-12T12:12:52;97720.83;;;29.48;57.72
60375;BME280;70244;48.792;9.172;2023-08-12T12:15:22;97718.84;;;29.43;57.69
60375;BME280;70244;48.792;9.172;2023-08-12T12:17:53;97721.01;;;29.39;57.66
60375;BME280;70244;48.792;9.172;2023-08-12T12:20:23;97747.14;;;29.34;57.97
60375;BME280;70244;48.792;9.172;2023-08-12T12:22:53;97768.18;;;29.27;58.27
60375;BME280;70244;48.792;9.172;2023-08-12T12:25:24;97789.83;;;29.23;57.97
60375;BME280;70244;48.792;9.172;2023-08-12T12:27:54;97797.90;;;29.29;57.66
60375;BME280;70244;48.792;9.172;2023-08-12T12:30:25;97793.35;;;29.22;58.04
60375;BME280;70244;48.792;9.172;2023-08-12T12:32:55;97792.93;;;29.33;57.43
60375;BME280;70244;48.792;9.172;2023-08-12T12:35:26;97786.19;;;29.30;57.40
60375;BME280;70244;48.792;9.172;2023-08-12T12:37:56;97778.64;;;29.30;57.94
60375;BME280;70244;48.792;9.172;2023-08-12T12:40:26;97776.93;;;29.25;58.26
60375;BME280;70244;48.792;9.172;2023-08-12T12:43:00;97765.33;;;29.22;58.27
60375;BME280;70244;48.792;9.172;2023-08-12T12:45:27;97761.35;;;29.22;57.88
60375;BME280;70244;48.792;9.172;2023-08-12T12:47:58;97773.93;;;29.23;57.91
60375;BME280;70244;48.792;9.172;2023-08-12T12:50:28;97783.94;;;29.24;57.99
60375;BME280;70244;48.792;9.172;2023-08-12T12:52:59;97786.39;;;29.20;58.03
60375;BME280;70244;48.792;9.172;2023-08-12T12:55:30;97802.32;;;29.20;58.14
60375;BME280;70244;48.792;9.172;2023-08-12T12:58:00;97814.65;;;29.18;57.88
60375;BME280;70244;48.792;9.172;2023-08-12T13:00:31;97814.92;;;29.22;57.59
60375;BME280;70244;48.792;9.172;2023-08-12T13:03:02;97809.00;;;29.24;57.45
60375;BME280;70244;48.792;9.172;2023-08-12T13:05:32;97828.51;;;29.30;58.07
60375;BME280;70244;48.792;9.172;2023-08-12T13:08:03;97827.30;;;29.26;57.88
60375;BME280;70244;48.792;9.172;2023-08-12T13:10:33;97824.34;;;29.26;57.53
60375;BME280;70244;48.792;9.172;2023-08-12T13:13:04;97830.48;;;29.32;58.09
60375;BME280;70244;48.792;9.172;2023-08-12T13:15:34;97834.44;;;29.31;58.02
60375;BME280;70244;48.792;9.172;2023-08-12T13:18:04;97832.14;;;29.31;58.00
60375;BME280;70244;48.792;9.172;2023-08-12T13:20:35;97835.86;;;29.31;58.25
60375;BME280;70244;48.792;9.172;2023-08-12T13:23:06;97838.70;;;29.30;58.18
60375;BME280;70244;48.792;9.172;2023-08-12T13:25:36;97836.07;;;29.26;58.25
60375;BME280;70244;48.792;9.172;2023-08-12T13:28:07;97833.09;;;29.30;58.20
60375;BME280;70244;48.792;9.172;2023-08-12T13:30:37;97829.89;;;29.29;58.21
60375;BME280;70244;48.792;9.172;2023-08-12T13:33:08;97830.66;;;29.26;58.30
60375;BME280;70244;48.792;9.172;2023-08-12T13:35:38;97828.67;;;29.26;58.21
60375;BME280;70244;48.792;9.172;2023-08-12T13:38:09;97825.36;;;29.26;58.24
60375;BME280;70244;48.792;9.172;2023-08-12T13:40:40;97820.93;;;29.26;58.29
60375;BME280;70244;48.792;9.172;2023-08-12T13:43:10;97811.74;;;29.24;58.38
60375;BME280;70244;48.792;9.172;2023-08-12T13:45:41;97806.80;;;29.28;58.13
60375;BME280;70244;48.792;9.172;2023-08-12T13:48:11;97800.00;;;29.34;57.96
60375;BME280;70244;48.792;9.172;2023-08-12T13:50:42;97799.01;;;29.40;57.78
60375;BME280;70244;48.792;9.172;2023-08-12T13:53:13;97793.88;;;29.42;57.67
60375;BME280;70244;48.792;9.172;2023-08-12T13:55:43;97788.45;;;29.46;57.57
60375;BME280;70244;48.792;9.172;2023-08-12T13:58:13;97778.85;;;29.54;57.60
60375;BME280;70244;48.792;9.172;2023-08-12T14:00:44;97771.58;;;29.53;57.75
60375;BME280;70244;48.792;9.172;2023-08-12T14:03:14;97766.53;;;29.51;57.74
60375;BME280;70244;48.792;9.172;2023-08-12T14:05:45;97761.00;;;29.49;57.81
60375;BME280;70244;48.792;9.172;2023-08-12T14:08:15;97743.38;;;29.51;58.00
60375;BME280;70244;48.792;9.172;2023-08-12T14:10:46;97728.60;;;29.50;57.94
60375;BME280;70244;48.792;9.172;2023-08-12T14:13:16;97720.42;;;29.50;57.61
60375;BME280;70244;48.792;9.172;2023-08-12T14:15:47;97711.92;;;29.49;57.61
60375;BME280;70244;48.792;9.172;2023-08-12T14:18:18;97706.33;;;29.50;57.63
60375;BME280;70244;48.792;9.172;2023-08-12T14:20:48;97695.25;;;29.48;57.81
60375;BME280;70244;48.792;9.172;2023-08-12T14:23:18;97691.30;;;29.49;57.77
60375;BME280;70244;48.792;9.172;2023-08-12T14:25:49;97698.04;;;29.42;57.93
60375;BME280;70244;48.792;9.172;2023-08-12T14:28:20;97701.06;;;29.60;57.45
60375;BME280;70244;48.792;9.172;2023-08-12T14:30:50;97698.66;;;29.60;57.46
60375;BME280;70244;48.792;9.172;2023-08-12T14:33:21;97699.24;;;29.64;57.38
60375;BME280;70244;48.792;9.172;2023-08-12T14:35:51;97703.41;;;29.60;58.58
60375;BME280;70244;48.792;9.172;2023-08-12T14:38:22;97701.46;;;29.61;58.51
60375;BME280;70244;48.792;9.172;2023-08-12T14:40:52;97696.95;;;29.54;58.82
60375;BME280;70244;48.792;9.172;2023-08-12T14:43:23;97685.74;;;29.52;58.82
60375;BME280;70244;48.792;9.172;2023-08-12T14:45:53;97673.40;;;29.54;58.78
60375;BME280;70244;48.792;9.172;2023-08-12T14:48:24;97660.27;;;29.54;58.75
60375;BME280;70244;48.792;9.172;2023-08-12T14:50:55;97651.03;;;29.51;58.59
60375;BME280;70244;48.792;9.172;2023-08-12T14:53:25;97658.62;;;29.54;58.40
60375;BME280;70244;48.792;9.172;2023-08-12T14:55:55;97666.28;;;29.58;58.27
60375;BME280;70244;48.792;9.172;2023-08-12T14:58:26;97677.13;;;29.58;58.24
60375;BME280;70244;48.792;9.172;2023-08-12T15:00:56;97682.76;;;29.57;58.61
60375;BME280;70244;48.792;9.172;2023-08-12T15:03:27;97673.17;;;29.55;58.96
60375;BME280;70244;48.792;9.172;2023-08-12T15:05:59;97659.42;;;29.61;58.45
60375;BME280;70244;48.792;9.172;2023-08-12T15:08:28;97662.67;;;29.66;58.75
60375;BME280;70244;48.792;9.172;2023-08-12T15:10:59;97665.64;;;29.66;58.10
60375;BME280;70244;48.792;9.172;2023-08-12T15:13:29;97659.72;;;29.75;58.00
60375;BME280;70244;48.792;9.172;2023-08-12T15:16:00;97662.19;;;29.70;57.98
60375;BME280;70244;48.792;9.172;2023-08-12T15:18:30;97660.65;;;29.68;58.17
60375;BME280;70244;48.792;9.172;2023-08-12T15:21:01;97667.40;;;29.57;58.42
60375;BME280;70244;48.792;9.172;2023-08-12T15:23:31;97666.97;;;29.58;58.85
60375;BME280;70244;48.792;9.172;2023-08-12T15:26:02;97671.35;;;29.59;58.94
60375;BME280;70244;48.792;9.172;2023-08-12T15:28:32;97673.76;;;29.53;58.90
60375;BME280;70244;48.792;9.172;2023-08-12T15:31:03;97669.38;;;29.51;58.74
60375;BME280;70244;48.792;9.172;2023-08-12T15:33:34;97661.14;;;29.58;57.83
60375;BME280;70244;48.792;9.172;2023-08-12T15:36:04;97668.02;;;29.45;58.46
60375;BME280;70244;48.792;9.172;2023-08-12T15:38:35;97681.26;;;29.45;58.16
60375;BME280;70244;48.792;9.172;2023-08-12T15:41:12;97691.00;;;29.48;58.89
60375;BME280;70244;48.792;9.172;2023-08-12T15:43:36;97684.43;;;29.44;58.77
60375;BME280;70244;48.792;9.172;2023-08-12T15:46:07;97682.86;;;29.44;58.90
60375;BME280;70244;48.792;9.172;2023-08-12T15:48:37;97676.42;;;29.32;59.00
60375;BME280;70244;48.792;9.172;2023-08-12T15:51:07;97676.37;;;29.39;58.82
60375;BME280;70244;48.792;9.172;2023-08-12T15:53:38;97679.13;;;29.38;58.87
60375;BME280;70244;48.792;9.172;2023-08-12T15:56:09;97676.44;;;29.36;58.52
60375;BME280;70244;48.792;9.172;2023-08-12T15:58:39;97672.59;;;29.37;58.26
60375;BME280;70244;48.792;9.172;2023-08-12T16:01:10;97676.54;;;29.35;58.52
60375;BME280;70244;48.792;9.172;2023-08-12T16:03:40;97679.28;;;29.38;59.21
60375;BME280;70244;48.792;9.172;2023-08-12T16:06:11;97691.05;;;29.38;59.48
60375;BME280;70244;48.792;9.172;2023-08-12T16:08:42;97701.10;;;29.37;59.35
60375;BME280;70244;48.792;9.172;2023-08-12T16:11:12;97709.52;;;29.36;59.48
60375;BME280;70244;48.792;9.172;2023-08-12T16:13:43;97716.31;;;29.35;59.38
60375;BME280;70244;48.792;9.172;2023-08-12T16:16:13;97723.51;;;29.33;59.40
60375;BME280;70244;48.792;9.172;2023-08-12T16:18:43;97732.72;;;29.34;59.48
60375;BME280;70244;48.792;9.172;2023-08-12T16:21:14;97752.88;;;29.35;59.25
60375;BME280;70244;48.792;9.172;2023-08-12T16:23:44;97769.32;;;29.32;59.28
60375;BME280;70244;48.792;9.172;2023-08-12T16:26:15;97783.45;;;29.25;59.57
60375;BME280;70244;48.792;9.172;2023-08-12T16:28:45;97773.70;;;29.21;58.80
60375;BME280;70244;48.792;9.172;2023-08-12T16:31:16;97765.95;;;29.12;59.55
60375;BME280;70244;48.792;9.172;2023-08-12T16:33:46;97770.80;;;29.19;59.07
60375;BME280;70244;48.792;9.172;2023-08-12T16:36:17;97777.62;;;29.19;59.32
60375;BME280;70244;48.792;9.172;2023-08-12T16:38:47;97796.07;;;29.15;59.88
60375;BME280;70244;48.792;9.172;2023-08-12T16:41:18;97795.84;;;29.53;58.79
60375;BME280;70244;48.792;9.172;2023-08-12T16:43:49;97794.28;;;29.46;59.13
60375;BME280;70244;48.792;9.172;2023-08-12T16:46:19;97801.14;;;29.48;59.50
60375;BME280;70244;48.792;9.172;2023-08-12T16:48:50;97800.84;;;29.54;59.60
60375;BME280;70244;48.792;9.172;2023-08-12T16:51:20;97802.66;;;29.52;59.67
60375;BME280;70244;48.792;9.172;2023-08-12T16:53:50;97810.15;;;29.24;60.49
60375;BME280;70244;48.792;9.172;2023-08-12T16:56:20;97826.07;;;29.35;60.64
60375;BME280;70244;48.792;9.172;2023-08-12T16:58:51;97827.96;;;29.42;60.27
60375;BME280;70244;48.792;9.172;2023-08-12T17:01:27;97825.73;;;29.58;59.95
60375;BME280;70244;48.792;9.172;2023-08-12T17:03:52;97815.10;;;29.41;60.66
60375;BME280;70244;48.792;9.172;2023-08-12T17:06:22;97809.84;;;29.62;59.86
60375;BME280;70244;48.792;9.172;2023-08-12T17:08:53;97813.35;;;29.68;59.47
60375;BME280;70244;48.792;9.172;2023-08-12T17:11:23;97805.64;;;29.78;59.66
60375;BME280;70244;48.792;9.172;2023-08-12T17:13:54;97801.44;;;29.74;59.83
60375;BME280;70244;48.792;9.172;2023-08-12T17:16:24;97796.87;;;29.80;59.38
60375;BME280;70244;48.792;9.172;2023-08-12T17:18:54;97791.42;;;29.78;59.42
60375;BME280;70244;48.792;9.172;2023-08-12T17:21:25;97788.93;;;29.75;59.43
60375;BME280;70244;48.792;9.172;2023-08-12T17:23:55;97797.31;;;29.77;59.33
60375;BME280;70244;48.792;9.172;2023-08-12T17:26:26;97799.49;;;29.76;59.31
60375;BME280;70244;48.792;9.172;2023-08-12T17:28:56;97804.36;;;29.70;59.35
60375;BME280;70244;48.792;9.172;2023-08-12T17:31:26;97802.31;;;29.69;59.39
60375;BME280;70244;48.792;9.172;2023-08-12T17:33:57;97802.82;;;29.14;61.27
60375;BME280;70244;48.792;9.172;2023-08-12T17:36:27;97802.51;;;29.48;60.43